Nathrop, Colorado
Current Conditions -  °F | °C
As of 9:15 PM on Tuesday 25 Nov 2014 (Local Time) from KAEJ Reporting Station
Scattered Clouds Scattered Clouds  
Wind Chill: 18°   Ceiling: Unl
Heat Index: 32°   Visibility: 10mi
Dew Point: 18°   Wind: 29mph
Humidity: 56%   Direction: 270°W
Pressure: 30.09"   Gusts: 43mph
Location:  38.75°N, 106.08°W
Report Text: KAEJ 260415Z AUTO 27025G37KT 10SM SCT065 00/M08 A3009 RMK AO2 T00001078
Loading
Personal Weather Stations






























Interactive Weather Map New forecast layout! Learn more

10-Day Weather Forecast

Advertisements
Track Severe Weather on mobile